Time;durP1;ratioP1;P1;durP2;ratioP2;P2;SDS_P1;SDS_P2;PMS_P1;PMS_P2;Temp;Humidity;BMP_temperature;BMP_pressure;BME280_temperature;BME280_humidity;BME280_pressure;Samples;Min_cycle;Max_cycle;Signal;HPM_P1;HPM_P2
2022/02/26 00:00:20;;;;;;;7.20;2.60;;;;;;;;;;5037566;28;20478;-68
2022/02/26 00:02:49;;;;;;;5.03;1.93;;;;;;;;;;5037676;28;21002;-68
2022/02/26 00:05:18;;;;;;;5.60;1.93;;;;;;;;;;5037388;28;20466;-68
2022/02/26 00:07:46;;;;;;;4.17;2.50;;;;;;;;;;5037340;28;20470;-68
2022/02/26 00:10:14;;;;;;;6.33;2.13;;;;;;;;;;5037239;28;20485;-68
2022/02/26 00:12:42;;;;;;;6.07;2.40;;;;;;;;;;5037311;28;20913;-68
2022/02/26 00:15:10;;;;;;;6.00;2.33;;;;;;;;;;5037276;28;20497;-68
2022/02/26 00:17:39;;;;;;;4.37;2.47;;;;;;;;;;5037324;28;20509;-68
2022/02/26 00:20:09;;;;;;;8.70;2.90;;;;;;;;;;5037538;28;20481;-68
2022/02/26 00:22:37;;;;;;;5.47;2.63;;;;;;;;;;5037184;28;20895;-68
2022/02/26 00:25:05;;;;;;;6.20;2.03;;;;;;;;;;5037279;28;20510;-68
2022/02/26 00:27:34;;;;;;;5.57;2.43;;;;;;;;;;5037410;28;20470;-68
2022/02/26 00:30:02;;;;;;;9.07;2.87;;;;;;;;;;5031622;28;20526;-68
2022/02/26 00:32:30;;;;;;;7.47;2.97;;;;;;;;;;5018053;28;20493;-68
2022/02/26 00:34:58;;;;;;;7.10;2.30;;;;;;;;;;5036562;28;20517;-68
2022/02/26 00:37:27;;;;;;;6.30;2.57;;;;;;;;;;5036855;28;20871;-68
2022/02/26 00:39:55;;;;;;;4.97;2.23;;;;;;;;;;5037386;28;20466;-68
2022/02/26 00:42:23;;;;;;;5.10;2.20;;;;;;;;;;5036804;28;20470;-68
2022/02/26 00:44:51;;;;;;;9.53;2.87;;;;;;;;;;5037126;28;20516;-68
2022/02/26 00:47:19;;;;;;;5.33;2.50;;;;;;;;;;5036892;28;20884;-68
2022/02/26 00:49:47;;;;;;;3.83;2.57;;;;;;;;;;5025172;28;20442;-68
2022/02/26 00:52:15;;;;;;;3.93;2.17;;;;;;;;;;5036890;28;20442;-68
2022/02/26 00:54:44;;;;;;;4.70;1.90;;;;;;;;;;5032828;28;20569;-68
2022/02/26 00:57:12;;;;;;;6.20;2.50;;;;;;;;;;5036621;28;20524;-68
2022/02/26 00:59:40;;;;;;;5.17;1.87;;;;;;;;;;5037016;28;20477;-68
2022/02/26 01:02:08;;;;;;;6.33;2.60;;;;;;;;;;5040086;28;20478;-68
2022/02/26 01:04:38;;;;;;;5.30;2.03;;;;;;;;;;5041069;28;20490;-68
2022/02/26 01:07:06;;;;;;;6.03;2.03;;;;;;;;;;5040773;28;20474;-68
2022/02/26 01:09:34;;;;;;;4.57;1.90;;;;;;;;;;5041139;28;21063;-68
2022/02/26 01:12:04;;;;;;;4.40;2.40;;;;;;;;;;5040197;28;20901;-68
2022/02/26 01:14:33;;;;;;;3.63;2.73;;;;;;;;;;5040964;28;20525;-68
2022/02/26 01:17:02;;;;;;;8.80;2.43;;;;;;;;;;5040471;28;20513;-68
2022/02/26 01:19:30;;;;;;;3.27;1.90;;;;;;;;;;5040773;28;20533;-68
2022/02/26 01:21:58;;;;;;;4.00;1.90;;;;;;;;;;5040881;28;20481;-68
2022/02/26 01:24:26;;;;;;;11.53;2.27;;;;;;;;;;5040268;28;20922;-68
2022/02/26 01:26:55;;;;;;;6.20;2.97;;;;;;;;;;5040130;28;20535;-68
2022/02/26 01:29:24;;;;;;;4.00;2.17;;;;;;;;;;5039910;28;20474;-68
2022/02/26 01:31:52;;;;;;;5.83;2.53;;;;;;;;;;5020481;28;21005;-68
2022/02/26 01:34:20;;;;;;;7.93;2.80;;;;;;;;;;5020914;28;20443;-68
2022/02/26 01:36:48;;;;;;;2.80;2.00;;;;;;;;;;5031231;28;20493;-68
2022/02/26 01:39:21;;;;;;;4.07;2.07;;;;;;;;;;5020580;28;20530;-68
2022/02/26 01:41:49;;;;;;;7.13;2.73;;;;;;;;;;5032845;28;21008;-68
2022/02/26 01:44:17;;;;;;;6.90;1.97;;;;;;;;;;5040141;28;20514;-68
2022/02/26 01:46:46;;;;;;;7.30;2.23;;;;;;;;;;5040217;28;20497;-68
2022/02/26 01:49:14;;;;;;;6.00;2.20;;;;;;;;;;5040341;28;20453;-68
2022/02/26 01:51:42;;;;;;;10.43;2.50;;;;;;;;;;5039934;28;20954;-68
2022/02/26 01:54:11;;;;;;;5.57;2.00;;;;;;;;;;5039869;28;20947;-68
2022/02/26 01:56:39;;;;;;;5.93;2.30;;;;;;;;;;5039921;28;20521;-68
2022/02/26 01:59:07;;;;;;;8.10;2.00;;;;;;;;;;5039876;28;20449;-68
2022/02/26 02:01:35;;;;;;;7.93;3.10;;;;;;;;;;5040053;28;20525;-68
2022/02/26 02:04:05;;;;;;;7.60;2.10;;;;;;;;;;5039952;28;20496;-68
2022/02/26 02:06:33;;;;;;;8.77;2.23;;;;;;;;;;5039887;28;20497;-66
2022/02/26 02:09:02;;;;;;;3.60;2.00;;;;;;;;;;5039794;28;20533;-68
2022/02/26 02:11:30;;;;;;;10.40;2.53;;;;;;;;;;5039538;28;20554;-68
2022/02/26 02:13:58;;;;;;;8.17;2.97;;;;;;;;;;5038730;28;20500;-69
2022/02/26 02:16:31;;;;;;;5.53;2.07;;;;;;;;;;5039514;28;20492;-68
2022/02/26 02:19:04;;;;;;;8.30;2.67;;;;;;;;;;5039495;28;21029;-68
2022/02/26 02:21:34;;;;;;;6.80;2.70;;;;;;;;;;5039727;28;20478;-67
2022/02/26 02:24:03;;;;;;;7.30;2.00;;;;;;;;;;5039599;28;20481;-68
2022/02/26 02:26:31;;;;;;;6.83;2.23;;;;;;;;;;5039660;28;20521;-68
2022/02/26 02:29:00;;;;;;;7.50;2.77;;;;;;;;;;5039092;28;20533;-68
2022/02/26 02:31:29;;;;;;;7.47;2.00;;;;;;;;;;5039432;28;20481;-68
2022/02/26 02:33:58;;;;;;;10.57;2.30;;;;;;;;;;5039363;28;20533;-68
2022/02/26 02:36:26;;;;;;;5.63;2.67;;;;;;;;;;5033647;28;20570;-68
2022/02/26 02:38:54;;;;;;;8.97;2.40;;;;;;;;;;5019103;28;20990;-68
2022/02/26 02:41:24;;;;;;;7.97;2.80;;;;;;;;;;5028138;28;20469;-68
2022/02/26 02:43:52;;;;;;;8.17;2.33;;;;;;;;;;5039151;28;20474;-68
2022/02/26 02:46:21;;;;;;;6.80;2.57;;;;;;;;;;5039021;28;20492;-68
2022/02/26 02:48:49;;;;;;;6.67;2.60;;;;;;;;;;5039119;28;20446;-68
2022/02/26 02:51:17;;;;;;;6.53;2.40;;;;;;;;;;5039229;28;20513;-68
2022/02/26 02:53:45;;;;;;;5.63;2.20;;;;;;;;;;5038720;28;20558;-68
2022/02/26 02:56:13;;;;;;;9.60;2.23;;;;;;;;;;5038900;28;20505;-68
2022/02/26 02:58:42;;;;;;;9.83;2.60;;;;;;;;;;5038663;28;20521;-68
2022/02/26 03:01:10;;;;;;;9.73;2.73;;;;;;;;;;5038792;28;20474;-68
2022/02/26 03:03:39;;;;;;;7.87;2.53;;;;;;;;;;5038735;28;21012;-68
2022/02/26 03:06:07;;;;;;;9.87;3.13;;;;;;;;;;5038420;28;20916;-68
2022/02/26 03:08:35;;;;;;;6.27;2.37;;;;;;;;;;5038640;28;20450;-68
2022/02/26 03:11:03;;;;;;;6.13;2.77;;;;;;;;;;5038617;28;20524;-68
2022/02/26 03:13:32;;;;;;;8.27;2.30;;;;;;;;;;5038413;28;20485;-68
2022/02/26 03:16:02;;;;;;;2.93;2.07;;;;;;;;;;5038486;28;20496;-68
2022/02/26 03:18:30;;;;;;;7.70;2.50;;;;;;;;;;5038461;28;20526;-68
2022/02/26 03:20:58;;;;;;;6.07;2.13;;;;;;;;;;5038602;28;20494;-68
2022/02/26 03:23:26;;;;;;;6.97;2.80;;;;;;;;;;5038252;28;20449;-68
2022/02/26 03:25:54;;;;;;;7.63;2.40;;;;;;;;;;5038088;28;20486;-68
2022/02/26 03:28:22;;;;;;;5.30;3.00;;;;;;;;;;5038254;28;20442;-68
2022/02/26 03:30:50;;;;;;;6.63;2.77;;;;;;;;;;5038465;28;20474;-68
2022/02/26 03:33:20;;;;;;;10.00;2.70;;;;;;;;;;5038408;28;20446;-68
2022/02/26 03:35:48;;;;;;;6.53;2.10;;;;;;;;;;5037482;28;20509;-68
2022/02/26 03:38:16;;;;;;;3.60;1.90;;;;;;;;;;5018196;28;20981;-68
2022/02/26 03:40:44;;;;;;;7.27;2.40;;;;;;;;;;5021833;28;20454;-68
2022/02/26 03:43:12;;;;;;;6.80;2.40;;;;;;;;;;5037901;28;20461;-68
2022/02/26 03:45:40;;;;;;;9.43;2.43;;;;;;;;;;5037996;28;20494;-68
2022/02/26 03:48:08;;;;;;;8.40;2.20;;;;;;;;;;5037909;28;21003;-68
2022/02/26 03:50:41;;;;;;;9.23;3.27;;;;;;;;;;5037871;28;20792;-68
2022/02/26 03:53:09;;;;;;;10.43;2.83;;;;;;;;;;5038172;28;20477;-68
2022/02/26 03:55:37;;;;;;;4.97;2.40;;;;;;;;;;5037576;28;20494;-68
2022/02/26 03:58:05;;;;;;;5.40;2.40;;;;;;;;;;5037780;28;20446;-68
2022/02/26 04:00:33;;;;;;;8.27;2.50;;;;;;;;;;5037529;28;20474;-68
2022/02/26 04:03:01;;;;;;;5.77;2.87;;;;;;;;;;5037577;28;20786;-68
2022/02/26 04:05:30;;;;;;;4.83;2.20;;;;;;;;;;5037594;28;20486;-68
2022/02/26 04:07:59;;;;;;;6.80;2.17;;;;;;;;;;5037684;28;20478;-68
2022/02/26 04:10:27;;;;;;;4.57;2.13;;;;;;;;;;5037071;28;20542;-68
2022/02/26 04:12:55;;;;;;;5.13;2.80;;;;;;;;;;5037440;28;20533;-68
2022/02/26 04:15:23;;;;;;;6.83;2.70;;;;;;;;;;5037098;28;20902;-68
2022/02/26 04:17:51;;;;;;;2.97;2.03;;;;;;;;;;5037188;28;20500;-68
2022/02/26 04:20:19;;;;;;;6.13;2.13;;;;;;;;;;5024867;28;20478;-68
2022/02/26 04:22:48;;;;;;;7.23;2.60;;;;;;;;;;5037418;28;20453;-68
2022/02/26 04:25:17;;;;;;;5.00;2.17;;;;;;;;;;5037214;28;20466;-68
2022/02/26 04:27:45;;;;;;;4.63;2.37;;;;;;;;;;5037069;28;20528;-68
2022/02/26 04:30:13;;;;;;;6.50;2.40;;;;;;;;;;5037315;28;20470;-68
2022/02/26 04:32:42;;;;;;;4.30;1.87;;;;;;;;;;5037236;28;20938;-68
2022/02/26 04:35:11;;;;;;;5.03;2.17;;;;;;;;;;5037330;28;20961;-68
2022/02/26 04:37:39;;;;;;;5.60;2.20;;;;;;;;;;5024640;28;21029;-68
2022/02/26 04:40:09;;;;;;;7.17;2.40;;;;;;;;;;5021881;28;20475;-68
2022/02/26 04:42:39;;;;;;;9.50;2.60;;;;;;;;;;5040376;28;20792;-68
2022/02/26 04:45:08;;;;;;;6.17;2.67;;;;;;;;;;5041372;28;20481;-68
2022/02/26 04:47:36;;;;;;;3.67;2.23;;;;;;;;;;5041118;28;21092;-68
2022/02/26 04:50:05;;;;;;;7.33;1.93;;;;;;;;;;5041179;28;20529;-68
2022/02/26 04:52:33;;;;;;;6.53;1.80;;;;;;;;;;5041204;28;20477;-68
2022/02/26 04:55:01;;;;;;;4.33;2.30;;;;;;;;;;5040964;28;20489;-68
2022/02/26 04:57:29;;;;;;;7.70;2.10;;;;;;;;;;5040795;28;20533;-68
2022/02/26 05:00:00;;;;;;;4.03;1.83;;;;;;;;;;5040935;28;20893;-68
2022/02/26 05:02:28;;;;;;;6.63;2.20;;;;;;;;;;5041202;28;20481;-68
2022/02/26 05:04:56;;;;;;;9.80;2.00;;;;;;;;;;5040937;28;20446;-68
2022/02/26 05:07:24;;;;;;;4.37;1.80;;;;;;;;;;5041111;28;20517;-68
2022/02/26 05:09:52;;;;;;;6.77;2.17;;;;;;;;;;5040932;28;20537;-68
2022/02/26 05:12:20;;;;;;;5.03;2.23;;;;;;;;;;5040359;28;21008;-68
2022/02/26 05:14:48;;;;;;;6.87;2.37;;;;;;;;;;5040805;28;20529;-68
2022/02/26 05:17:18;;;;;;;6.23;2.10;;;;;;;;;;5040663;28;20901;-68
2022/02/26 05:19:46;;;;;;;5.23;1.87;;;;;;;;;;5040792;28;20524;-68
2022/02/26 05:22:14;;;;;;;4.53;2.07;;;;;;;;;;5040700;28;20534;-68
2022/02/26 05:24:42;;;;;;;4.27;1.90;;;;;;;;;;5037671;28;20534;-68
2022/02/26 05:27:10;;;;;;;6.27;2.83;;;;;;;;;;5037113;28;20541;-68
2022/02/26 05:29:38;;;;;;;5.53;1.97;;;;;;;;;;5036611;28;20467;-68
2022/02/26 05:32:08;;;;;;;8.50;2.87;;;;;;;;;;5036676;28;20442;-68
2022/02/26 05:34:38;;;;;;;6.03;2.30;;;;;;;;;;5039483;28;20466;-68
2022/02/26 05:37:06;;;;;;;7.43;2.13;;;;;;;;;;5037021;28;20977;-68
2022/02/26 05:39:34;;;;;;;7.23;2.70;;;;;;;;;;5037112;28;21025;-68
2022/02/26 05:42:02;;;;;;;6.00;2.60;;;;;;;;;;5036528;28;20508;-68
2022/02/26 05:44:30;;;;;;;3.00;1.57;;;;;;;;;;5037825;28;20438;-68
2022/02/26 05:46:58;;;;;;;3.77;2.80;;;;;;;;;;5036794;28;20539;-68
2022/02/26 05:49:27;;;;;;;7.50;3.00;;;;;;;;;;5039158;28;20530;-68
2022/02/26 05:51:56;;;;;;;4.43;2.17;;;;;;;;;;5036904;28;20523;-68
2022/02/26 05:54:24;;;;;;;3.73;2.13;;;;;;;;;;5038099;28;20473;-68
2022/02/26 05:56:52;;;;;;;5.60;2.70;;;;;;;;;;5037847;28;20454;-68
2022/02/26 05:59:22;;;;;;;4.90;2.27;;;;;;;;;;5038860;28;20854;-68
2022/02/26 06:01:50;;;;;;;9.47;2.53;;;;;;;;;;5036743;28;20442;-68
2022/02/26 06:04:18;;;;;;;4.13;2.03;;;;;;;;;;5037927;28;20506;-68
2022/02/26 06:06:46;;;;;;;4.93;2.40;;;;;;;;;;5035184;28;20525;-68
2022/02/26 06:09:16;;;;;;;8.30;2.50;;;;;;;;;;5036485;28;20500;-68
2022/02/26 06:11:44;;;;;;;3.93;2.70;;;;;;;;;;5037770;28;20521;-68
2022/02/26 06:14:12;;;;;;;7.00;2.67;;;;;;;;;;5037871;28;20462;-68
2022/02/26 06:16:40;;;;;;;4.33;2.20;;;;;;;;;;5037938;28;21001;-69
2022/02/26 06:19:08;;;;;;;5.07;2.37;;;;;;;;;;5038460;28;20434;-68
2022/02/26 06:21:36;;;;;;;4.50;2.30;;;;;;;;;;5037516;28;20469;-68
2022/02/26 06:24:04;;;;;;;9.67;2.50;;;;;;;;;;5039048;28;20450;-68
2022/02/26 06:26:34;;;;;;;3.20;2.53;;;;;;;;;;5035541;28;20489;-68
2022/02/26 06:29:06;;;;;;;9.93;5.03;;;;;;;;;;5035388;28;20836;-68
2022/02/26 06:31:34;;;;;;;5.87;2.53;;;;;;;;;;5036878;28;20962;-68
2022/02/26 06:34:02;;;;;;;8.20;2.60;;;;;;;;;;5035753;28;20434;-68
2022/02/26 06:36:31;;;;;;;5.17;2.43;;;;;;;;;;5035971;28;20504;-68
2022/02/26 06:38:59;;;;;;;4.30;2.40;;;;;;;;;;5034746;28;20500;-68
2022/02/26 06:41:27;;;;;;;6.40;2.70;;;;;;;;;;5035616;28;20492;-68
2022/02/26 06:43:57;;;;;;;5.67;2.73;;;;;;;;;;5037915;28;20438;-68
2022/02/26 06:46:25;;;;;;;7.43;2.67;;;;;;;;;;5036884;28;20527;-68
2022/02/26 06:48:53;;;;;;;4.53;2.50;;;;;;;;;;5036046;28;20520;-68
2022/02/26 06:51:21;;;;;;;7.03;3.03;;;;;;;;;;5036004;28;20438;-68
2022/02/26 06:53:49;;;;;;;3.70;2.77;;;;;;;;;;5033630;28;20517;-68
2022/02/26 06:56:17;;;;;;;6.00;2.87;;;;;;;;;;5035081;28;20461;-68
2022/02/26 06:58:45;;;;;;;3.43;2.37;;;;;;;;;;5036447;28;20466;-68
2022/02/26 07:01:15;;;;;;;5.50;2.87;;;;;;;;;;5037079;28;20465;-68
2022/02/26 07:03:43;;;;;;;4.10;2.93;;;;;;;;;;5034875;28;20820;-68
2022/02/26 07:06:11;;;;;;;4.10;2.40;;;;;;;;;;5035836;28;20497;-66
2022/02/26 07:08:39;;;;;;;4.90;2.33;;;;;;;;;;5035602;28;20572;-66
2022/02/26 07:11:07;;;;;;;6.40;2.43;;;;;;;;;;5027276;28;20498;-66
2022/02/26 07:13:36;;;;;;;4.83;2.40;;;;;;;;;;5018650;28;20447;-66
2022/02/26 07:16:05;;;;;;;6.33;2.17;;;;;;;;;;5034369;28;20542;-66
2022/02/26 07:18:34;;;;;;;6.27;2.83;;;;;;;;;;5038085;28;20439;-66
2022/02/26 07:21:03;;;;;;;6.70;2.37;;;;;;;;;;5036467;28;20461;-66
2022/02/26 07:23:31;;;;;;;5.13;3.10;;;;;;;;;;5033568;28;20888;-66
2022/02/26 07:26:00;;;;;;;4.60;2.50;;;;;;;;;;5037428;28;20554;-66
2022/02/26 07:28:28;;;;;;;3.93;2.60;;;;;;;;;;5037501;28;21044;-66
2022/02/26 07:30:56;;;;;;;4.67;3.00;;;;;;;;;;5035007;28;20523;-66
2022/02/26 07:33:24;;;;;;;4.20;2.40;;;;;;;;;;5037252;28;20473;-66
2022/02/26 07:35:53;;;;;;;6.20;2.40;;;;;;;;;;5036956;28;20476;-66
2022/02/26 07:38:21;;;;;;;5.50;2.23;;;;;;;;;;5035360;28;20470;-65
2022/02/26 07:40:49;;;;;;;6.53;2.97;;;;;;;;;;5034260;28;20510;-66
2022/02/26 07:43:17;;;;;;;5.50;2.80;;;;;;;;;;5034391;28;20927;-66
2022/02/26 07:45:46;;;;;;;5.23;2.50;;;;;;;;;;5034687;28;20549;-66
2022/02/26 07:48:14;;;;;;;5.03;2.80;;;;;;;;;;5036982;28;20478;-66
2022/02/26 07:50:42;;;;;;;5.67;2.43;;;;;;;;;;5036471;28;20519;-66
2022/02/26 07:53:12;;;;;;;6.03;2.67;;;;;;;;;;5036434;28;20434;-66
2022/02/26 07:55:40;;;;;;;4.87;2.50;;;;;;;;;;5034038;28;20895;-66
2022/02/26 07:58:08;;;;;;;10.57;2.73;;;;;;;;;;5035344;28;20465;-66
2022/02/26 08:00:36;;;;;;;4.30;2.60;;;;;;;;;;5036406;28;20950;-67
2022/02/26 08:03:05;;;;;;;4.17;2.83;;;;;;;;;;5036261;28;20477;-70
2022/02/26 08:05:33;;;;;;;7.43;2.90;;;;;;;;;;5034533;28;20462;-67
2022/02/26 08:08:01;;;;;;;4.23;2.50;;;;;;;;;;5028698;28;20541;-67
2022/02/26 08:10:31;;;;;;;4.90;2.13;;;;;;;;;;5032783;28;20492;-67
2022/02/26 08:12:59;;;;;;;5.03;2.40;;;;;;;;;;5017506;28;20533;-67
2022/02/26 08:15:28;;;;;;;6.97;3.10;;;;;;;;;;5004645;28;20543;-67
2022/02/26 08:17:56;;;;;;;3.80;2.83;;;;;;;;;;5016141;28;20451;-68
2022/02/26 08:20:24;;;;;;;7.50;2.70;;;;;;;;;;5017469;28;20547;-67
2022/02/26 08:22:53;;;;;;;9.50;3.00;;;;;;;;;;5017654;28;20478;-68
2022/02/26 08:25:22;;;;;;;6.00;3.30;;;;;;;;;;5017087;28;20467;-67
2022/02/26 08:27:51;;;;;;;7.10;2.10;;;;;;;;;;5009263;28;21089;-68
2022/02/26 08:30:22;;;;;;;4.80;2.50;;;;;;;;;;4997482;28;21032;-67
2022/02/26 08:32:50;;;;;;;4.83;2.60;;;;;;;;;;4997626;28;20480;-68
2022/02/26 08:35:18;;;;;;;7.77;2.60;;;;;;;;;;4997779;28;20503;-68
2022/02/26 08:37:46;;;;;;;9.50;3.30;;;;;;;;;;5006967;28;20534;-68
2022/02/26 08:40:15;;;;;;;4.53;2.73;;;;;;;;;;5017325;28;20240;-68
2022/02/26 08:42:43;;;;;;;6.60;2.80;;;;;;;;;;5007376;28;20896;-68
2022/02/26 08:45:13;;;;;;;4.93;2.77;;;;;;;;;;5017006;28;21031;-67
2022/02/26 08:47:42;;;;;;;5.40;2.47;;;;;;;;;;5017367;28;20215;-68
2022/02/26 08:50:11;;;;;;;4.20;2.83;;;;;;;;;;5017052;28;20255;-68
2022/02/26 08:52:40;;;;;;;4.90;2.10;;;;;;;;;;5017043;28;20455;-68
2022/02/26 08:55:09;;;;;;;3.50;2.83;;;;;;;;;;5017378;28;20255;-67
2022/02/26 08:57:37;;;;;;;6.10;2.40;;;;;;;;;;5016935;28;20739;-68
2022/02/26 09:00:08;;;;;;;5.27;2.47;;;;;;;;;;5003076;28;20673;-68
2022/02/26 09:02:38;;;;;;;4.10;2.20;;;;;;;;;;5000608;28;20617;-67
2022/02/26 09:05:09;;;;;;;5.90;2.37;;;;;;;;;;5003496;28;20451;-67
2022/02/26 09:07:37;;;;;;;7.90;2.80;;;;;;;;;;4997520;28;20455;-68
2022/02/26 09:10:06;;;;;;;7.63;3.07;;;;;;;;;;4997209;28;20515;-68
2022/02/26 09:12:34;;;;;;;6.10;2.43;;;;;;;;;;5016460;28;20554;-68
2022/02/26 09:15:03;;;;;;;4.10;2.43;;;;;;;;;;5016924;28;20471;-68
2022/02/26 09:17:31;;;;;;;5.40;2.33;;;;;;;;;;5032342;28;20477;-68
2022/02/26 09:20:00;;;;;;;3.60;2.50;;;;;;;;;;5036490;28;20937;-68
2022/02/26 09:22:34;;;;;;;3.73;2.20;;;;;;;;;;5038456;28;20816;-67
2022/02/26 09:25:01;;;;;;;3.97;2.37;;;;;;;;;;5040066;28;20308;-67
2022/02/26 09:27:30;;;;;;;4.27;2.10;;;;;;;;;;5039897;28;20710;-67
2022/02/26 09:29:58;;;;;;;5.73;2.27;;;;;;;;;;5039944;28;20232;-68
2022/02/26 09:32:27;;;;;;;3.77;2.10;;;;;;;;;;5040267;28;20287;-67
2022/02/26 09:34:55;;;;;;;4.67;2.70;;;;;;;;;;5039978;28;20239;-67
2022/02/26 09:37:25;;;;;;;4.63;2.33;;;;;;;;;;5024329;28;20300;-68
2022/02/26 09:39:54;;;;;;;4.87;1.80;;;;;;;;;;5031668;28;20238;-67
2022/02/26 09:42:23;;;;;;;4.30;2.20;;;;;;;;;;5022115;28;20573;-68
2022/02/26 09:44:51;;;;;;;4.47;2.23;;;;;;;;;;5020362;28;20483;-68
2022/02/26 09:47:20;;;;;;;2.50;1.80;;;;;;;;;;5019902;28;20984;-68
2022/02/26 09:49:48;;;;;;;7.70;2.23;;;;;;;;;;5020064;28;20259;-68
2022/02/26 09:52:17;;;;;;;2.53;1.90;;;;;;;;;;5026688;28;20745;-68
2022/02/26 09:54:48;;;;;;;4.47;2.10;;;;;;;;;;5039776;28;20239;-68
2022/02/26 09:57:18;;;;;;;7.03;2.13;;;;;;;;;;5039303;28;20659;-67
2022/02/26 09:59:46;;;;;;;7.37;2.47;;;;;;;;;;5038838;28;20980;-72
2022/02/26 10:02:14;;;;;;;7.07;2.30;;;;;;;;;;5037997;28;20231;-72
2022/02/26 10:04:53;;;;;;;5.37;2.63;;;;;;;;;;5037130;28;20277;-71
2022/02/26 10:07:22;;;;;;;4.17;1.90;;;;;;;;;;5036841;28;20730;-71
2022/02/26 10:09:52;;;;;;;3.97;2.03;;;;;;;;;;5034082;28;20311;-69
2022/02/26 10:12:25;;;;;;;4.87;2.33;;;;;;;;;;5037714;28;20351;-70
2022/02/26 10:14:55;;;;;;;2.93;2.40;;;;;;;;;;5037012;28;20509;-70
2022/02/26 10:17:27;;;;;;;3.13;1.80;;;;;;;;;;5037472;28;20438;-70
2022/02/26 10:20:07;;;;;;;3.73;2.43;;;;;;;;;;5038330;28;20529;-70
2022/02/26 10:22:36;;;;;;;2.87;2.43;;;;;;;;;;5035054;28;20446;-70
2022/02/26 10:25:08;;;;;;;3.67;2.30;;;;;;;;;;5036175;28;20887;-71
2022/02/26 10:27:39;;;;;;;6.53;2.53;;;;;;;;;;5033359;28;20522;-72
2022/02/26 10:30:07;;;;;;;3.90;2.67;;;;;;;;;;5036938;28;20516;-70
2022/02/26 10:32:35;;;;;;;4.63;2.13;;;;;;;;;;5038379;28;20522;-71
2022/02/26 10:35:05;;;;;;;4.93;2.20;;;;;;;;;;5037825;28;20439;-71
2022/02/26 10:37:32;;;;;;;3.27;2.30;;;;;;;;;;5038519;28;20474;-70
2022/02/26 10:40:01;;;;;;;4.10;1.87;;;;;;;;;;5035157;28;20459;-69
2022/02/26 10:42:32;;;;;;;3.93;2.10;;;;;;;;;;5038184;28;20484;-70
2022/02/26 10:45:01;;;;;;;2.50;1.70;;;;;;;;;;5038223;28;20466;-70
2022/02/26 10:47:31;;;;;;;4.47;1.87;;;;;;;;;;5038088;28;20472;-70
2022/02/26 10:49:59;;;;;;;3.77;2.10;;;;;;;;;;5038096;28;20514;-72
2022/02/26 10:52:30;;;;;;;2.50;1.70;;;;;;;;;;5035759;28;20445;-69
2022/02/26 10:55:00;;;;;;;1.83;1.50;;;;;;;;;;5035814;28;20442;-70
2022/02/26 10:57:31;;;;;;;3.80;2.17;;;;;;;;;;5035243;28;20534;-71
2022/02/26 10:59:59;;;;;;;4.90;2.83;;;;;;;;;;5037993;28;20458;-70
2022/02/26 11:02:28;;;;;;;5.23;1.77;;;;;;;;;;5036307;28;20448;-72
2022/02/26 11:04:56;;;;;;;4.03;2.20;;;;;;;;;;5037587;28;20952;-69
2022/02/26 11:07:26;;;;;;;3.57;2.20;;;;;;;;;;5037421;28;20253;-72
2022/02/26 11:09:54;;;;;;;5.57;3.00;;;;;;;;;;5037298;28;20585;-74
2022/02/26 11:12:25;;;;;;;3.93;2.63;;;;;;;;;;5034669;28;20235;-72
2022/02/26 11:14:59;;;;;;;3.03;1.90;;;;;;;;;;5026307;28;20571;-70
2022/02/26 11:17:28;;;;;;;4.67;2.83;;;;;;;;;;5033085;28;20679;-72
2022/02/26 11:20:01;;;;;;;4.40;1.80;;;;;;;;;;5035234;28;20235;-71
2022/02/26 11:22:29;;;;;;;3.00;2.27;;;;;;;;;;5037288;28;20677;-71
2022/02/26 11:24:57;;;;;;;3.83;2.00;;;;;;;;;;5034389;28;20200;-71
2022/02/26 11:27:26;;;;;;;4.20;2.03;;;;;;;;;;5034180;28;20742;-71
2022/02/26 11:29:55;;;;;;;2.17;1.67;;;;;;;;;;5036481;28;20311;-71
2022/02/26 11:32:28;;;;;;;3.60;2.10;;;;;;;;;;5036914;28;20243;-71
2022/02/26 11:35:11;;;;;;;4.13;2.10;;;;;;;;;;5034478;28;20200;-72
2022/02/26 11:37:39;;;;;;;4.43;2.80;;;;;;;;;;5036676;28;20203;-71
2022/02/26 11:40:11;;;;;;;8.07;3.13;;;;;;;;;;5030733;28;20207;-72
2022/02/26 11:42:40;;;;;;;4.17;2.10;;;;;;;;;;5028514;28;20606;-71
2022/02/26 11:45:09;;;;;;;3.10;2.10;;;;;;;;;;5033492;28;20227;-71
2022/02/26 11:47:41;;;;;;;2.03;1.93;;;;;;;;;;5035232;28;20239;-71
2022/02/26 11:50:10;;;;;;;5.90;2.50;;;;;;;;;;5035080;28;20661;-71
2022/02/26 11:52:50;;;;;;;4.43;2.30;;;;;;;;;;5031978;28;20200;-72
2022/02/26 11:55:25;;;;;;;6.23;2.20;;;;;;;;;;5036171;28;20665;-71
2022/02/26 11:57:54;;;;;;;4.73;1.67;;;;;;;;;;5034926;28;20262;-71
2022/02/26 12:00:23;;;;;;;2.93;1.63;;;;;;;;;;5032548;28;20685;-71
2022/02/26 12:03:09;;;;;;;5.23;2.10;;;;;;;;;;5036217;28;20200;-71
2022/02/26 12:05:39;;;;;;;2.10;1.90;;;;;;;;;;5035353;28;20655;-71
2022/02/26 12:08:09;;;;;;;3.37;2.83;;;;;;;;;;5034117;28;20237;-71
2022/02/26 12:10:37;;;;;;;2.13;1.97;;;;;;;;;;5031555;28;20315;-71
2022/02/26 12:13:20;;;;;;;3.60;2.30;;;;;;;;;;5036052;28;20200;-71
2022/02/26 12:15:48;;;;;;;5.10;3.47;;;;;;;;;;5035601;28;20311;-72
2022/02/26 12:18:22;;;;;;;4.07;1.87;;;;;;;;;;5034202;28;20235;-71
2022/02/26 12:21:00;;;;;;;5.33;2.83;;;;;;;;;;5034371;28;20206;-72
2022/02/26 12:23:28;;;;;;;3.10;2.10;;;;;;;;;;5033442;28;20199;-71
2022/02/26 12:26:01;;;;;;;3.73;2.60;;;;;;;;;;5033776;28;20656;-71
2022/02/26 12:28:29;;;;;;;1.60;1.50;;;;;;;;;;5031703;28;20235;-71
2022/02/26 12:31:05;;;;;;;4.67;2.30;;;;;;;;;;5035349;28;20223;-71
2022/02/26 12:33:40;;;;;;;3.83;2.30;;;;;;;;;;5031405;28;20298;-71
2022/02/26 12:36:10;;;;;;;3.63;2.23;;;;;;;;;;5036220;28;20306;-71
2022/02/26 12:38:48;;;;;;;2.73;2.30;;;;;;;;;;5030983;28;20210;-71
2022/02/26 12:41:29;;;;;;;6.63;2.57;;;;;;;;;;5030934;28;20278;-71
2022/02/26 12:43:57;;;;;;;3.27;2.67;;;;;;;;;;5031946;28;20687;-71
2022/02/26 12:46:26;;;;;;;5.57;2.23;;;;;;;;;;5035140;28;20306;-71
2022/02/26 12:48:55;;;;;;;4.03;2.30;;;;;;;;;;5029479;28;20232;-72
2022/02/26 12:51:24;;;;;;;6.03;2.30;;;;;;;;;;5036296;28;20310;-71
2022/02/26 12:53:52;;;;;;;3.90;2.27;;;;;;;;;;5030220;28;20246;-70
2022/02/26 12:56:30;;;;;;;5.87;2.70;;;;;;;;;;5036503;28;20270;-70
2022/02/26 12:59:12;;;;;;;3.67;2.43;;;;;;;;;;5038579;28;20222;-71
2022/02/26 13:01:40;;;;;;;5.10;2.43;;;;;;;;;;5040167;28;20245;-71
2022/02/26 13:04:12;;;;;;;2.87;2.37;;;;;;;;;;5041080;28;20212;-71
2022/02/26 13:06:45;;;;;;;6.67;2.33;;;;;;;;;;5040853;28;20262;-71
2022/02/26 13:09:13;;;;;;;4.37;2.50;;;;;;;;;;5041358;28;20282;-71
2022/02/26 13:11:44;;;;;;;2.27;1.60;;;;;;;;;;5040050;28;21861;-71
2022/02/26 13:14:12;;;;;;;1.80;1.70;;;;;;;;;;5041406;28;20240;-70
2022/02/26 13:16:42;;;;;;;5.30;2.07;;;;;;;;;;5040803;28;20219;-71
2022/02/26 13:19:11;;;;;;;3.73;1.93;;;;;;;;;;5031906;28;20257;-71
2022/02/26 13:21:39;;;;;;;4.50;1.87;;;;;;;;;;5040981;28;20227;-71
2022/02/26 13:24:09;;;;;;;2.70;1.90;;;;;;;;;;5040977;28;20239;-70
2022/02/26 13:26:37;;;;;;;2.13;1.80;;;;;;;;;;5038422;28;20662;-69
2022/02/26 13:29:19;;;;;;;4.60;1.60;;;;;;;;;;5036196;28;20203;-69
2022/02/26 13:31:47;;;;;;;4.13;2.20;;;;;;;;;;5037571;28;20302;-69
2022/02/26 13:34:18;;;;;;;4.03;1.47;;;;;;;;;;5040401;28;20267;-69
2022/02/26 13:36:47;;;;;;;1.67;1.57;;;;;;;;;;5031260;28;20224;-69
2022/02/26 13:39:17;;;;;;;2.10;1.47;;;;;;;;;;5026677;28;20238;-69
2022/02/26 13:41:46;;;;;;;3.90;1.77;;;;;;;;;;5037286;28;20278;-69
2022/02/26 13:44:13;;;;;;;1.60;1.40;;;;;;;;;;5035858;28;20280;-68
2022/02/26 13:46:43;;;;;;;3.27;1.40;;;;;;;;;;5023403;28;20713;-67
2022/02/26 13:49:15;;;;;;;2.23;1.70;;;;;;;;;;5038279;28;20207;-67
2022/02/26 13:51:45;;;;;;;2.07;1.63;;;;;;;;;;5030776;28;20322;-74
2022/02/26 13:54:15;;;;;;;3.10;1.60;;;;;;;;;;5040652;28;20290;-71
2022/02/26 13:56:44;;;;;;;4.33;1.67;;;;;;;;;;5039889;28;20319;-71
2022/02/26 13:59:13;;;;;;;2.60;1.37;;;;;;;;;;5033313;28;20235;-71
2022/02/26 14:01:51;;;;;;;2.60;1.80;;;;;;;;;;5020333;28;20287;-71
2022/02/26 14:04:20;;;;;;;4.20;1.60;;;;;;;;;;5020399;28;20212;-71
2022/02/26 14:06:48;;;;;;;3.10;1.83;;;;;;;;;;5026947;28;20251;-71
2022/02/26 14:09:17;;;;;;;1.43;1.33;;;;;;;;;;5038795;28;20208;-71
2022/02/26 14:11:51;;;;;;;2.63;1.60;;;;;;;;;;5039426;28;20273;-71
2022/02/26 14:14:23;;;;;;;1.80;1.53;;;;;;;;;;5039560;28;20268;-71
2022/02/26 14:16:51;;;;;;;3.77;2.00;;;;;;;;;;5039360;28;20752;-71
2022/02/26 14:19:19;;;;;;;2.10;1.50;;;;;;;;;;5039375;28;20291;-71
2022/02/26 14:21:47;;;;;;;3.47;1.97;;;;;;;;;;5039624;28;20210;-71
2022/02/26 14:24:16;;;;;;;2.20;1.23;;;;;;;;;;5039824;28;20267;-71
2022/02/26 14:26:51;;;;;;;1.80;1.50;;;;;;;;;;5039087;28;20262;-71
2022/02/26 14:29:26;;;;;;;1.93;1.70;;;;;;;;;;5039845;28;20234;-71
2022/02/26 14:32:02;;;;;;;2.33;1.50;;;;;;;;;;5039509;28;20266;-71
2022/02/26 14:34:33;;;;;;;2.83;1.80;;;;;;;;;;5039964;28;20203;-71
2022/02/26 14:37:02;;;;;;;1.77;1.67;;;;;;;;;;5037258;28;20258;-72
2022/02/26 14:39:34;;;;;;;3.60;1.40;;;;;;;;;;5019546;28;20668;-71
2022/02/26 14:42:04;;;;;;;5.87;1.77;;;;;;;;;;5027471;28;20227;-71
2022/02/26 14:44:33;;;;;;;2.90;1.60;;;;;;;;;;5039531;28;20239;-71
2022/02/26 14:47:01;;;;;;;2.23;1.80;;;;;;;;;;5038960;28;20273;-72
2022/02/26 14:49:29;;;;;;;2.17;1.30;;;;;;;;;;5038962;28;20273;-71
2022/02/26 14:51:57;;;;;;;3.43;1.70;;;;;;;;;;5039150;28;20765;-71
2022/02/26 14:54:25;;;;;;;1.43;1.33;;;;;;;;;;5039243;28;20238;-72